createdAt,value
2019-05-22T00:01:03.537Z,62.03
2019-05-22T00:03:07.144Z,60.53
2019-05-22T00:05:18.010Z,64.93
2019-05-22T00:07:20.300Z,70.47
2019-05-22T00:09:25.647Z,71.97
2019-05-22T00:11:28.821Z,90.30
2019-05-22T00:13:30.533Z,62.23
2019-05-22T00:15:32.905Z,67.10
2019-05-22T00:17:35.342Z,77.13
2019-05-22T00:19:37.958Z,71.83
2019-05-22T00:21:41.761Z,82.20
2019-05-22T00:23:44.948Z,71.83
2019-05-22T00:25:46.955Z,60.43
2019-05-22T00:27:49.470Z,66.23
2019-05-22T00:29:53.533Z,75.03
2019-05-22T00:31:55.386Z,70.57
2019-05-22T00:33:57.153Z,72.63
2019-05-22T00:36:00.110Z,64.83
2019-05-22T00:38:03.915Z,83.53
2019-05-22T00:40:07.577Z,70.73
2019-05-22T00:42:10.801Z,70.60
2019-05-22T00:44:13.685Z,71.87
2019-05-22T00:46:20.054Z,64.27
2019-05-22T00:48:23.139Z,63.50
2019-05-22T00:50:28.810Z,74.80
2019-05-22T00:52:45.492Z,65.17
2019-05-22T00:54:55.101Z,67.43
2019-05-22T00:57:05.867Z,76.43
2019-05-22T00:59:11.274Z,73.33
2019-05-22T01:01:36.916Z,76.10
2019-05-22T01:03:39.491Z,76.67
2019-05-22T01:05:43.024Z,67.67
2019-05-22T01:07:46.518Z,65.17
2019-05-22T01:09:51.348Z,67.13
2019-05-22T01:11:55.006Z,63.83
2019-05-22T01:13:57.006Z,65.03
2019-05-22T01:15:58.983Z,69.40
2019-05-22T01:18:01.742Z,71.50
2019-05-22T01:20:06.276Z,63.97
2019-05-22T01:22:09.844Z,65.20
2019-05-22T01:24:12.612Z,63.50
2019-05-22T01:26:18.341Z,65.87
2019-05-22T01:28:21.251Z,66.43
2019-05-22T01:30:48.441Z,66.87
2019-05-22T01:32:50.782Z,69.70
2019-05-22T01:34:52.540Z,72.80
2019-05-22T01:37:06.781Z,69.10
2019-05-22T01:39:25.541Z,72.13
2019-05-22T01:41:29.721Z,90.73
2019-05-22T01:43:33.294Z,69.33
2019-05-22T01:45:37.524Z,69.80
2019-05-22T01:47:50.815Z,68.07
2019-05-22T01:49:53.579Z,75.50
2019-05-22T01:51:55.626Z,71.53
2019-05-22T01:53:57.795Z,67.90
2019-05-22T01:56:01.925Z,65.47
2019-05-22T01:58:03.673Z,74.07
2019-05-22T02:00:07.085Z,71.40
2019-05-22T02:02:11.019Z,70.47
2019-05-22T02:04:14.881Z,73.67
2019-05-22T02:06:19.037Z,66.43
2019-05-22T02:08:21.604Z,72.03
2019-05-22T02:10:27.280Z,70.20
2019-05-22T02:12:50.034Z,68.53
2019-05-22T02:14:52.394Z,64.93
2019-05-22T02:16:57.251Z,73.73
2019-05-22T02:18:59.290Z,75.07
2019-05-22T02:21:01.417Z,66.77
2019-05-22T02:23:05.021Z,84.77
2019-05-22T02:25:07.697Z,73.33
2019-05-22T02:27:09.637Z,74.97
2019-05-22T02:29:12.914Z,62.07
2019-05-22T02:31:16.510Z,67.80
2019-05-22T02:33:20.583Z,61.03
2019-05-22T02:35:23.350Z,69.53
2019-05-22T02:37:26.544Z,77.53
2019-05-22T02:39:30.018Z,64.57
2019-05-22T02:41:41.504Z,71.70
2019-05-22T02:43:43.186Z,62.20
2019-05-22T02:45:44.865Z,70.87
2019-05-22T02:47:48.335Z,53.67
2019-05-22T02:49:51.202Z,62.13
2019-05-22T02:51:53.582Z,65.03
2019-05-22T02:53:56.749Z,69.47
2019-05-22T02:55:58.632Z,55.67
2019-05-22T02:58:01.216Z,61.93
2019-05-22T03:00:03.493Z,68.20
2019-05-22T03:02:05.377Z,60.10
2019-05-22T03:04:09.778Z,63.20
2019-05-22T03:06:12.192Z,56.00
2019-05-22T03:08:13.856Z,56.77
2019-05-22T03:10:17.626Z,57.03
2019-05-22T03:12:21.525Z,56.80
2019-05-22T03:14:24.187Z,57.50
2019-05-22T03:16:27.706Z,58.17
2019-05-22T03:18:30.005Z,60.10
2019-05-22T03:20:32.593Z,49.97
2019-05-22T03:22:40.419Z,53.80
2019-05-22T03:24:42.583Z,59.10
2019-05-22T03:26:47.957Z,49.33
2019-05-22T03:28:50.564Z,60.83
2019-05-22T03:30:52.570Z,58.87
2019-05-22T03:32:54.816Z,58.07
2019-05-22T03:34:56.640Z,45.73
2019-05-22T03:36:58.355Z,48.20
2019-05-22T03:39:00.030Z,45.80
2019-05-22T03:41:02.897Z,51.87
2019-05-22T03:43:24.269Z,43.00
2019-05-22T03:45:27.746Z,48.60
2019-05-22T03:47:29.412Z,51.20
2019-05-22T03:49:31.679Z,57.27
2019-05-22T03:51:34.762Z,47.53
2019-05-22T03:53:36.540Z,48.47
2019-05-22T03:55:38.206Z,57.67
2019-05-22T03:57:40.614Z,52.00
2019-05-22T03:59:42.269Z,57.30
2019-05-22T04:01:45.055Z,50.90
2019-05-22T04:03:47.604Z,70.73
2019-05-22T04:05:51.646Z,52.20
2019-05-22T04:07:53.918Z,57.77
2019-05-22T04:09:56.786Z,55.93
2019-05-22T04:11:58.638Z,52.27
2019-05-22T04:14:00.451Z,45.03
2019-05-22T04:16:03.690Z,45.27
2019-05-22T04:18:42.691Z,40.53
2019-05-22T04:20:44.653Z,42.93
2019-05-22T04:22:47.217Z,37.53
2019-05-22T04:24:49.447Z,39.90
2019-05-22T04:26:51.119Z,38.03
2019-05-22T04:28:54.286Z,38.93
2019-05-22T04:30:59.839Z,38.30
2019-05-22T04:33:00.975Z,41.70
2019-05-22T04:35:04.555Z,34.27
2019-05-22T04:37:08.186Z,39.17
2019-05-22T04:39:19.773Z,41.93
2019-05-22T04:41:22.142Z,39.27
2019-05-22T04:43:25.941Z,34.20
2019-05-22T04:45:28.793Z,44.30
2019-05-22T04:47:30.798Z,40.80
2019-05-22T04:49:32.477Z,38.63
2019-05-22T04:51:34.137Z,31.17
2019-05-22T04:53:35.802Z,38.80
2019-05-22T04:55:37.470Z,33.70
2019-05-22T04:57:39.536Z,35.50
2019-05-22T04:59:41.214Z,33.87
2019-05-22T05:01:42.869Z,36.90
2019-05-22T05:03:44.551Z,31.00
2019-05-22T05:05:49.009Z,32.07
2019-05-22T05:07:51.460Z,32.67
2019-05-22T05:09:53.141Z,31.53
2019-05-22T05:11:54.822Z,34.67
2019-05-22T05:13:56.494Z,31.37
2019-05-22T05:15:58.164Z,38.70
2019-05-22T05:17:59.828Z,31.87
2019-05-22T05:20:01.827Z,30.17
2019-05-22T05:22:03.542Z,32.17
2019-05-22T05:24:05.216Z,29.67
2019-05-22T05:26:06.895Z,41.83
2019-05-22T05:28:10.467Z,36.03
2019-05-22T05:30:13.957Z,42.90
2019-05-22T05:32:15.921Z,36.17
2019-05-22T05:34:26.785Z,33.60
2019-05-22T05:36:28.753Z,37.77
2019-05-22T05:38:33.318Z,29.53
2019-05-22T05:40:43.067Z,31.37
2019-05-22T05:42:44.806Z,34.47
2019-05-22T05:44:46.494Z,34.10
2019-05-22T05:46:48.258Z,37.10
2019-05-22T05:48:51.825Z,39.77
2019-05-22T05:51:26.997Z,35.00
2019-05-22T05:53:28.662Z,37.77
2019-05-22T05:55:52.448Z,42.20
2019-05-22T05:58:23.910Z,32.60
2019-05-22T06:00:30.879Z,39.07
2019-05-22T06:02:32.750Z,41.43
2019-05-22T06:04:37.274Z,33.73
2019-05-22T06:07:19.003Z,32.33
2019-05-22T06:09:21.322Z,33.93
2019-05-22T06:11:40.214Z,37.90
2019-05-22T06:13:41.886Z,37.47
2019-05-22T06:16:25.942Z,40.33
2019-05-22T06:18:34.105Z,34.50
2019-05-22T06:20:35.982Z,43.00
2019-05-22T06:22:39.832Z,33.93
2019-05-22T06:24:59.686Z,36.37
2019-05-22T06:27:18.348Z,31.20
2019-05-22T06:29:21.275Z,31.97
2019-05-22T06:31:36.510Z,33.70
2019-05-22T06:33:38.661Z,33.93
2019-05-22T06:35:41.862Z,42.53
2019-05-22T06:37:52.708Z,32.50
2019-05-22T06:39:55.278Z,39.27
2019-05-22T06:41:56.961Z,34.40
2019-05-22T06:44:37.613Z,35.47
2019-05-22T06:46:42.723Z,42.77
2019-05-22T06:48:44.401Z,49.27
2019-05-22T06:50:49.125Z,36.70
2019-05-22T06:52:49.652Z,35.70
2019-05-22T06:54:51.545Z,51.27
2019-05-22T06:56:53.242Z,37.30
2019-05-22T06:58:54.907Z,35.97
2019-05-22T07:00:57.290Z,39.30
2019-05-22T07:02:58.964Z,34.67
2019-05-22T07:05:01.234Z,34.40
2019-05-22T07:07:05.427Z,34.97
2019-05-22T07:09:09.074Z,31.40
2019-05-22T07:11:11.350Z,32.83
2019-05-22T07:13:13.649Z,42.30
2019-05-22T07:15:40.457Z,33.50
2019-05-22T07:17:42.841Z,36.17
2019-05-22T07:19:45.099Z,36.50
2019-05-22T07:21:47.467Z,38.00
2019-05-22T07:23:49.130Z,30.13
2019-05-22T07:25:51.853Z,38.80
2019-05-22T07:27:53.693Z,45.33
2019-05-22T07:29:56.161Z,31.33
2019-05-22T07:32:02.194Z,36.80
2019-05-22T07:34:03.551Z,42.97
2019-05-22T07:36:10.288Z,39.30
2019-05-22T07:38:09.238Z,33.60
2019-05-22T07:40:10.989Z,37.07
2019-05-22T07:42:12.652Z,36.67
2019-05-22T07:44:14.425Z,41.33
2019-05-22T07:46:16.109Z,36.47
2019-05-22T07:48:18.529Z,36.07
2019-05-22T07:50:21.155Z,51.53
2019-05-22T07:52:22.833Z,32.23
2019-05-22T07:54:24.782Z,37.23
2019-05-22T07:56:27.317Z,34.33
2019-05-22T07:58:30.858Z,36.70
2019-05-22T08:00:32.513Z,38.00
2019-05-22T08:02:38.863Z,36.83
2019-05-22T08:04:40.974Z,30.17
2019-05-22T08:06:42.740Z,38.53
2019-05-22T08:08:44.728Z,34.47
2019-05-22T08:10:46.950Z,30.07
2019-05-22T08:12:48.707Z,35.13
2019-05-22T08:14:50.794Z,35.37
2019-05-22T08:16:52.461Z,48.00
2019-05-22T08:18:54.151Z,39.27
2019-05-22T08:20:55.824Z,28.60
2019-05-22T08:22:57.619Z,45.90
2019-05-22T08:24:59.293Z,35.13
2019-05-22T08:27:00.961Z,31.27
2019-05-22T08:29:03.925Z,43.20
2019-05-22T08:31:06.803Z,33.10
2019-05-22T08:33:10.972Z,41.97
2019-05-22T08:35:13.138Z,30.93
2019-05-22T08:37:16.384Z,40.90
2019-05-22T08:39:18.689Z,40.80
2019-05-22T08:41:24.765Z,35.83
2019-05-22T08:43:27.157Z,34.63
2019-05-22T08:45:29.136Z,36.60
2019-05-22T08:47:31.346Z,38.60
2019-05-22T08:49:33.625Z,31.97
2019-05-22T08:51:35.285Z,37.37
2019-05-22T08:53:46.816Z,34.00
2019-05-22T08:55:41.017Z,31.30
2019-05-22T08:57:42.977Z,39.10
2019-05-22T08:59:44.962Z,32.40
2019-05-22T09:01:47.522Z,38.10
2019-05-22T09:03:49.517Z,41.80
2019-05-22T09:05:51.253Z,31.57
2019-05-22T09:07:53.359Z,33.50
2019-05-22T09:09:55.029Z,35.10
2019-05-22T09:11:57.006Z,30.83
2019-05-22T09:13:58.663Z,36.30
2019-05-22T09:16:01.946Z,33.33
2019-05-22T09:18:04.500Z,26.60
2019-05-22T09:20:07.736Z,25.20
2019-05-22T09:22:10.851Z,25.93
2019-05-22T09:24:13.718Z,23.17
2019-05-22T09:26:16.573Z,20.93
2019-05-22T09:28:18.853Z,19.73
2019-05-22T09:30:21.137Z,20.90
2019-05-22T09:32:22.801Z,19.50
2019-05-22T09:34:24.509Z,21.00
2019-05-22T09:36:26.249Z,21.60
2019-05-22T09:38:28.618Z,19.43
2019-05-22T09:40:31.841Z,19.40
2019-05-22T09:42:35.001Z,19.57
2019-05-22T09:44:36.697Z,19.37
2019-05-22T09:46:39.053Z,20.40
2019-05-22T09:48:40.742Z,19.87
2019-05-22T09:50:42.493Z,29.37
2019-05-22T09:52:56.969Z,19.77
2019-05-22T09:54:48.936Z,19.70
2019-05-22T09:56:51.141Z,22.90
2019-05-22T09:58:53.109Z,21.93
2019-05-22T10:00:55.399Z,22.03
2019-05-22T10:02:57.366Z,19.57
2019-05-22T10:04:59.033Z,21.60
2019-05-22T10:07:00.947Z,25.00
2019-05-22T10:09:03.268Z,19.90
2019-05-22T10:11:05.144Z,25.47
2019-05-22T10:13:06.822Z,22.67
2019-05-22T10:15:10.509Z,21.53
2019-05-22T10:17:12.266Z,18.90
2019-05-22T10:19:14.290Z,19.47
2019-05-22T10:21:16.016Z,18.43
2019-05-22T10:23:18.151Z,19.97
2019-05-22T10:25:20.427Z,20.40
2019-05-22T10:27:22.994Z,19.73
2019-05-22T10:29:24.672Z,24.13
2019-05-22T10:31:26.456Z,20.07
2019-05-22T10:33:28.446Z,27.73
2019-05-22T10:35:33.106Z,21.40
2019-05-22T10:37:34.770Z,19.93
2019-05-22T10:39:37.830Z,27.83
2019-05-22T10:41:40.144Z,22.20
2019-05-22T10:43:42.093Z,24.73
2019-05-22T10:45:44.682Z,23.87
2019-05-22T10:47:46.898Z,24.57
2019-05-22T10:49:48.878Z,23.37
2019-05-22T10:51:50.555Z,25.83
2019-05-22T10:53:52.447Z,29.90
2019-05-22T10:55:54.133Z,26.23
2019-05-22T10:57:55.815Z,25.50
2019-05-22T10:59:57.570Z,21.13
2019-05-22T11:01:59.246Z,24.63
2019-05-22T11:04:01.115Z,25.10
2019-05-22T11:06:07.182Z,22.20
2019-05-22T11:08:06.663Z,32.80
2019-05-22T11:10:09.057Z,23.90
2019-05-22T11:12:12.037Z,25.63
2019-05-22T11:14:13.720Z,24.47
2019-05-22T11:16:15.393Z,25.73
2019-05-22T11:18:17.169Z,26.97
2019-05-22T11:20:18.841Z,18.27
2019-05-22T11:22:21.530Z,20.43
2019-05-22T11:24:23.395Z,20.87
2019-05-22T11:26:25.083Z,21.67
2019-05-22T11:28:27.245Z,20.87
2019-05-22T11:30:29.305Z,21.50
2019-05-22T11:32:31.286Z,17.43
2019-05-22T11:34:33.046Z,15.00
2019-05-22T11:36:34.851Z,18.07
2019-05-22T11:38:36.521Z,14.80
2019-05-22T11:40:39.141Z,21.83
2019-05-22T11:42:40.858Z,23.17
2019-05-22T11:44:42.589Z,28.37
2019-05-22T11:46:44.719Z,16.50
2019-05-22T11:48:46.586Z,17.53
2019-05-22T11:50:48.585Z,21.17
2019-05-22T11:52:50.832Z,19.97
2019-05-22T11:54:52.598Z,18.93
2019-05-22T11:56:54.393Z,16.60
2019-05-22T11:58:56.160Z,16.43
2019-05-22T12:00:57.937Z,20.83
2019-05-22T12:03:00.614Z,16.80
2019-05-22T12:05:02.593Z,23.00
2019-05-22T12:07:04.937Z,12.90
2019-05-22T12:09:08.489Z,13.90
2019-05-22T12:11:12.201Z,13.00
2019-05-22T12:13:14.467Z,16.60
2019-05-22T12:15:16.129Z,12.90
2019-05-22T12:17:34.798Z,23.73
2019-05-22T12:19:21.877Z,14.27
2019-05-22T12:21:24.146Z,20.50
2019-05-22T12:23:26.119Z,11.33
2019-05-22T12:25:28.341Z,10.63
2019-05-22T12:27:30.277Z,12.90
2019-05-22T12:29:31.933Z,12.03
2019-05-22T12:31:33.638Z,13.60
2019-05-22T12:33:35.420Z,10.63
2019-05-22T12:35:37.099Z,9.47
2019-05-22T12:37:38.822Z,10.53
2019-05-22T12:39:41.134Z,12.67
2019-05-22T12:41:43.114Z,10.43
2019-05-22T12:43:46.018Z,16.57
2019-05-22T12:45:47.690Z,13.50
2019-05-22T12:47:49.681Z,10.27
2019-05-22T12:49:51.440Z,12.90
2019-05-22T12:51:53.118Z,9.17
2019-05-22T12:53:54.885Z,8.77
2019-05-22T12:55:56.653Z,9.40
2019-05-22T12:57:58.598Z,13.23
2019-05-22T13:00:02.613Z,9.80
2019-05-22T13:02:04.653Z,10.00
2019-05-22T13:04:07.381Z,9.13
2019-05-22T13:06:09.333Z,8.33
2019-05-22T13:08:11.152Z,7.87
2019-05-22T13:10:14.160Z,10.77
2019-05-22T13:12:15.939Z,12.57
2019-05-22T13:14:17.618Z,9.50
2019-05-22T13:16:19.768Z,10.47
2019-05-22T13:18:22.073Z,18.73
2019-05-22T13:20:41.223Z,9.93
2019-05-22T13:22:29.633Z,11.17
2019-05-22T13:24:31.606Z,13.07
2019-05-22T13:26:34.116Z,13.53
2019-05-22T13:28:38.004Z,15.40
2019-05-22T13:30:42.398Z,20.87
2019-05-22T13:32:44.078Z,12.27
2019-05-22T13:34:45.766Z,11.33
2019-05-22T13:36:47.511Z,10.83
2019-05-22T13:38:49.193Z,15.90
2019-05-22T13:40:51.812Z,10.23
2019-05-22T13:42:53.490Z,9.90
2019-05-22T13:44:56.074Z,11.63
2019-05-22T13:46:58.040Z,10.60
2019-05-22T13:49:00.006Z,8.57
2019-05-22T13:51:01.682Z,12.83
2019-05-22T13:53:05.769Z,11.33
2019-05-22T13:55:08.682Z,10.13
2019-05-22T13:57:10.643Z,9.77
2019-05-22T13:59:12.745Z,11.50
2019-05-22T14:01:14.397Z,9.50
2019-05-22T14:03:16.822Z,11.00
2019-05-22T14:05:18.485Z,14.73
2019-05-22T14:07:20.747Z,9.70
2019-05-22T14:09:22.494Z,16.00
2019-05-22T14:11:24.187Z,9.70
2019-05-22T14:13:27.232Z,14.57
2019-05-22T14:15:47.906Z,12.77
2019-05-22T14:17:32.774Z,11.27
2019-05-22T14:19:34.557Z,9.60
2019-05-22T14:21:36.221Z,13.03
2019-05-22T14:23:38.000Z,12.83
2019-05-22T14:25:40.174Z,16.60
2019-05-22T14:27:42.171Z,10.30
2019-05-22T14:29:44.143Z,13.80
2019-05-22T14:31:46.106Z,18.77
2019-05-22T14:33:48.044Z,12.13
2019-05-22T14:35:50.289Z,15.63
2019-05-22T14:37:52.268Z,12.00
2019-05-22T14:39:54.160Z,17.77
2019-05-22T14:41:56.234Z,19.93
2019-05-22T14:43:58.249Z,12.07
2019-05-22T14:46:00.201Z,13.53
2019-05-22T14:48:02.235Z,10.97
2019-05-22T14:50:24.037Z,10.33
2019-05-22T14:52:25.799Z,11.33
2019-05-22T14:54:27.875Z,15.17
2019-05-22T14:56:29.548Z,14.37
2019-05-22T14:58:32.156Z,13.87
2019-05-22T15:00:34.554Z,9.80
2019-05-22T15:02:36.633Z,10.60
2019-05-22T15:04:38.910Z,7.60
2019-05-22T15:06:40.777Z,8.67
2019-05-22T15:08:42.787Z,12.03
2019-05-22T15:10:45.068Z,8.80
2019-05-22T15:12:46.733Z,10.93
2019-05-22T15:14:48.517Z,9.97
2019-05-22T15:16:50.186Z,13.00
2019-05-22T15:18:51.869Z,10.53
2019-05-22T15:21:00.731Z,11.07
2019-05-22T15:23:02.809Z,8.17
2019-05-22T15:25:05.641Z,8.93
2019-05-22T15:27:07.808Z,7.60
2019-05-22T15:29:09.494Z,10.17
2019-05-22T15:31:11.176Z,12.13
2019-05-22T15:33:12.965Z,9.90
2019-05-22T15:35:14.641Z,9.90
2019-05-22T15:37:19.415Z,9.07
2019-05-22T15:39:22.984Z,7.50
2019-05-22T15:41:25.770Z,10.50
2019-05-22T15:43:28.143Z,10.23
2019-05-22T15:45:31.056Z,10.77
2019-05-22T15:47:52.602Z,7.30
2019-05-22T15:49:37.968Z,7.70
2019-05-22T15:51:40.238Z,18.07
2019-05-22T15:53:41.913Z,11.87
2019-05-22T15:55:44.538Z,13.73
2019-05-22T15:57:46.791Z,7.73
2019-05-22T15:59:48.461Z,13.07
2019-05-22T16:01:50.131Z,11.50
2019-05-22T16:03:52.322Z,10.07
2019-05-22T16:05:54.287Z,10.80
2019-05-22T16:07:55.950Z,10.50
2019-05-22T16:09:57.629Z,6.70
2019-05-22T16:11:59.294Z,12.30
2019-05-22T16:14:01.342Z,6.33
2019-05-22T16:16:03.479Z,7.60
2019-05-22T16:18:11.765Z,8.43
2019-05-22T16:20:09.823Z,9.17
2019-05-22T16:22:11.489Z,8.70
2019-05-22T16:24:13.492Z,7.10
2019-05-22T16:26:18.854Z,14.50
2019-05-22T16:28:24.110Z,8.37
2019-05-22T16:30:27.319Z,9.67
2019-05-22T16:32:29.595Z,7.67
2019-05-22T16:34:31.277Z,9.73
2019-05-22T16:36:33.549Z,8.47
2019-05-22T16:38:37.068Z,6.43
2019-05-22T16:40:38.730Z,6.87
2019-05-22T16:42:40.920Z,7.40
2019-05-22T16:44:42.897Z,7.80
2019-05-22T16:46:45.473Z,7.57
2019-05-22T16:48:47.195Z,10.47
2019-05-22T16:50:49.805Z,12.13
2019-05-22T16:52:52.004Z,9.40
2019-05-22T16:54:53.682Z,7.57
2019-05-22T16:56:55.347Z,5.73
2019-05-22T16:58:57.009Z,6.33
2019-05-22T17:00:58.885Z,8.13
2019-05-22T17:03:01.153Z,11.33
2019-05-22T17:05:03.730Z,8.57
2019-05-22T17:07:06.298Z,12.03
2019-05-22T17:09:10.973Z,6.30
2019-05-22T17:11:12.784Z,10.53
2019-05-22T17:13:16.160Z,22.23
2019-05-22T17:15:18.417Z,4.77
2019-05-22T17:17:20.173Z,7.37
2019-05-22T17:19:27.280Z,4.80
2019-05-22T17:21:26.441Z,7.47
2019-05-22T17:23:28.110Z,6.43
2019-05-22T17:25:30.390Z,5.30
2019-05-22T17:27:32.357Z,4.70
2019-05-22T17:29:34.602Z,7.40
2019-05-22T17:31:36.288Z,6.20
2019-05-22T17:33:38.022Z,7.43
2019-05-22T17:35:40.201Z,8.90
2019-05-22T17:37:42.235Z,8.67
2019-05-22T17:39:46.530Z,3.80
2019-05-22T17:41:48.188Z,12.63
2019-05-22T17:43:50.177Z,5.47
2019-05-22T17:45:51.881Z,11.57
2019-05-22T17:47:54.128Z,7.73
2019-05-22T17:49:56.054Z,5.07
2019-05-22T17:51:57.713Z,8.00
2019-05-22T17:53:59.833Z,5.40
2019-05-22T17:56:02.100Z,7.43
2019-05-22T17:58:05.432Z,9.10
2019-05-22T18:00:12.334Z,14.00
2019-05-22T18:02:15.426Z,10.53
2019-05-22T18:04:17.101Z,5.70
2019-05-22T18:06:18.786Z,5.00
2019-05-22T18:08:21.861Z,10.87
2019-05-22T18:10:24.237Z,8.97
2019-05-22T18:12:26.510Z,7.53
2019-05-22T18:14:28.781Z,7.13
2019-05-22T18:16:31.062Z,6.10
2019-05-22T18:18:32.961Z,9.83
2019-05-22T18:20:43.399Z,10.70
2019-05-22T18:22:39.300Z,7.40
2019-05-22T18:24:41.272Z,7.50
2019-05-22T18:26:43.261Z,9.53
2019-05-22T18:28:45.061Z,9.03
2019-05-22T18:30:46.741Z,8.63
2019-05-22T18:32:48.816Z,5.83
2019-05-22T18:34:50.492Z,8.00
2019-05-22T18:36:52.169Z,5.20
2019-05-22T18:38:53.838Z,5.90
2019-05-22T18:40:55.770Z,7.40
2019-05-22T18:42:57.442Z,5.63
2019-05-22T18:44:59.462Z,11.70
2019-05-22T18:47:01.274Z,13.67
2019-05-22T18:49:02.961Z,16.03
2019-05-22T18:51:05.545Z,6.73
2019-05-22T18:53:07.416Z,8.83
2019-05-22T18:55:09.068Z,7.57
2019-05-22T18:57:10.754Z,11.80
2019-05-22T18:59:12.470Z,9.33
2019-05-22T19:01:16.485Z,5.97
2019-05-22T19:03:18.379Z,7.90
2019-05-22T19:05:22.553Z,6.53
2019-05-22T19:07:24.274Z,8.03
2019-05-22T19:09:26.862Z,10.43
2019-05-22T19:11:29.150Z,10.07
2019-05-22T19:13:30.820Z,7.20
2019-05-22T19:15:32.505Z,9.17
2019-05-22T19:17:35.013Z,9.53
2019-05-22T19:19:36.972Z,12.70
2019-05-22T19:21:38.658Z,8.30
2019-05-22T19:23:40.676Z,11.63
2019-05-22T19:25:42.350Z,7.33
2019-05-22T19:27:44.019Z,11.70
2019-05-22T19:29:45.720Z,10.97
2019-05-22T19:31:47.436Z,9.73
2019-05-22T19:33:49.105Z,12.37
2019-05-22T19:35:50.779Z,14.20
2019-05-22T19:37:53.113Z,7.90
2019-05-22T19:39:55.323Z,8.13
2019-05-22T19:42:03.864Z,8.80
2019-05-22T19:44:01.182Z,7.60
2019-05-22T19:46:03.386Z,8.43
2019-05-22T19:48:05.154Z,8.60
2019-05-22T19:50:22.301Z,16.07
2019-05-22T19:52:13.383Z,14.33
2019-05-22T19:54:15.048Z,8.33
2019-05-22T19:56:17.344Z,7.63
2019-05-22T19:58:22.007Z,13.03
2019-05-22T20:00:24.025Z,19.33
2019-05-22T20:02:26.021Z,11.20
2019-05-22T20:04:27.986Z,12.00
2019-05-22T20:06:30.314Z,7.60
2019-05-22T20:08:35.910Z,7.20
2019-05-22T20:10:36.725Z,9.50
2019-05-22T20:12:38.997Z,7.73
2019-05-22T20:14:40.665Z,11.97
2019-05-22T20:16:42.881Z,9.10
2019-05-22T20:18:44.664Z,8.40
2019-05-22T20:20:46.839Z,8.93
2019-05-22T20:22:49.325Z,10.50
2019-05-22T20:24:50.997Z,7.57
2019-05-22T20:26:52.675Z,7.63
2019-05-22T20:28:55.364Z,8.10
2019-05-22T20:30:57.452Z,15.57
2019-05-22T20:32:59.213Z,10.13
2019-05-22T20:35:01.143Z,9.20
2019-05-22T20:37:03.102Z,6.10
2019-05-22T20:39:06.481Z,7.63
2019-05-22T20:41:08.854Z,6.63
2019-05-22T20:43:11.751Z,17.80
2019-05-22T20:45:14.882Z,10.10
2019-05-22T20:47:18.062Z,9.87
2019-05-22T20:49:20.092Z,8.00
2019-05-22T20:51:23.880Z,12.60
2019-05-22T20:53:26.535Z,10.90
2019-05-22T20:55:28.786Z,5.97
2019-05-22T20:57:32.640Z,12.47
2019-05-22T20:59:35.910Z,5.03
2019-05-22T21:01:37.782Z,14.27
2019-05-22T21:03:40.536Z,13.30
2019-05-22T21:05:43.010Z,14.70
2019-05-22T21:07:45.390Z,4.00
2019-05-22T21:09:47.360Z,8.33
2019-05-22T21:11:49.076Z,11.93
2019-05-22T21:13:51.928Z,6.80
2019-05-22T21:15:55.645Z,10.60
2019-05-22T21:17:57.373Z,11.50
2019-05-22T21:20:00.998Z,10.67
2019-05-22T21:22:04.320Z,5.17
2019-05-22T21:24:11.294Z,5.60
2019-05-22T21:26:09.882Z,13.33
2019-05-22T21:28:11.677Z,7.03
2019-05-22T21:30:14.334Z,7.57
2019-05-22T21:32:16.774Z,9.43
2019-05-22T21:34:18.862Z,11.87
2019-05-22T21:36:22.435Z,8.40
2019-05-22T21:38:25.518Z,16.53
2019-05-22T21:40:27.316Z,6.70
2019-05-22T21:42:29.779Z,7.53
2019-05-22T21:44:32.033Z,10.17
2019-05-22T21:46:34.626Z,11.37
2019-05-22T21:48:37.805Z,11.37
2019-05-22T21:50:40.651Z,8.80
2019-05-22T21:52:42.921Z,6.90
2019-05-22T21:54:45.202Z,10.43
2019-05-22T21:56:47.137Z,16.23
2019-05-22T21:58:48.918Z,10.50
2019-05-22T22:01:25.762Z,10.03
2019-05-22T22:03:28.397Z,10.43
2019-05-22T22:05:30.578Z,5.73
2019-05-22T22:07:32.233Z,6.40
2019-05-22T22:09:34.715Z,10.00
2019-05-22T22:11:37.009Z,9.80
2019-05-22T22:13:38.889Z,6.20
2019-05-22T22:15:40.570Z,11.50
2019-05-22T22:17:42.219Z,8.07
2019-05-22T22:19:45.588Z,9.50
2019-05-22T22:21:48.093Z,7.97
2019-05-22T22:23:50.070Z,12.43
2019-05-22T22:25:51.759Z,9.07
2019-05-22T22:27:54.072Z,5.27
2019-05-22T22:29:56.597Z,9.63
2019-05-22T22:32:00.027Z,8.00
2019-05-22T22:34:07.075Z,5.80
2019-05-22T22:36:09.138Z,7.53
2019-05-22T22:38:12.117Z,13.63
2019-05-22T22:40:15.178Z,8.47
2019-05-22T22:42:19.445Z,3.90
2019-05-22T22:44:21.904Z,3.33
2019-05-22T22:46:29.263Z,5.90
2019-05-22T22:48:32.833Z,12.20
2019-05-22T22:50:35.738Z,8.80
2019-05-22T22:52:39.157Z,15.93
2019-05-22T22:54:41.181Z,14.00
2019-05-22T22:56:43.252Z,9.73
2019-05-22T22:58:45.132Z,13.20
2019-05-22T23:00:49.010Z,9.90
2019-05-22T23:02:50.998Z,13.00
2019-05-22T23:04:52.681Z,16.53
2019-05-22T23:06:55.990Z,10.03
2019-05-22T23:08:58.130Z,10.93
2019-05-22T23:11:00.630Z,8.83
2019-05-22T23:13:02.922Z,6.13
2019-05-22T23:15:05.085Z,5.33
2019-05-22T23:17:08.364Z,6.40
2019-05-22T23:19:42.593Z,11.00
2019-05-22T23:21:47.133Z,9.03
2019-05-22T23:23:48.645Z,10.63
2019-05-22T23:25:50.301Z,7.60
2019-05-22T23:27:52.860Z,7.83
2019-05-22T23:29:55.357Z,5.17
2019-05-22T23:31:59.395Z,8.30
2019-05-22T23:34:01.074Z,7.23
2019-05-22T23:36:03.181Z,13.03
2019-05-22T23:38:05.500Z,13.37
2019-05-22T23:40:07.785Z,8.60
2019-05-22T23:42:12.028Z,11.13
2019-05-22T23:44:16.356Z,5.97
2019-05-22T23:46:18.537Z,7.87
2019-05-22T23:48:22.109Z,11.97
2019-05-22T23:50:23.786Z,10.87
2019-05-22T23:52:26.181Z,6.53
2019-05-22T23:54:27.870Z,14.63
2019-05-22T23:56:30.134Z,7.07
2019-05-22T23:58:31.792Z,22.50
